createdAt,value
2023-03-11T00:01:20.552Z,94586.53
2023-03-11T00:11:23.273Z,94582.41
2023-03-11T00:21:26.436Z,94585.28
2023-03-11T00:31:29.757Z,94599.25
2023-03-11T00:41:34.460Z,94602.19
2023-03-11T00:51:37.373Z,94606.34
2023-03-11T01:01:39.763Z,94602.66
2023-03-11T01:11:42.593Z,94583.22
2023-03-11T01:21:45.502Z,94579.97
2023-03-11T01:31:48.113Z,94581.94
2023-03-11T01:41:50.847Z,94566.63
2023-03-11T01:52:00.640Z,94627.59
2023-03-11T02:02:11.556Z,94652.38
2023-03-11T02:12:15.524Z,94677.69
2023-03-11T02:22:17.713Z,94679.25
2023-03-11T02:32:20.557Z,94705.41
2023-03-11T02:42:26.444Z,94723.19
2023-03-11T02:52:29.610Z,94747.00
2023-03-11T03:02:31.832Z,94777.66
2023-03-11T03:12:34.425Z,94772.03
2023-03-11T03:22:36.698Z,94770.88
2023-03-11T03:32:38.995Z,94800.25
2023-03-11T03:42:41.167Z,94801.88
2023-03-11T03:52:43.349Z,94821.44
2023-03-11T06:05:13.400Z,95136.72
2023-03-11T06:15:16.291Z,95199.50
2023-03-11T06:25:18.845Z,95219.16
2023-03-11T06:35:21.350Z,95244.91
2023-03-11T06:45:23.527Z,95280.97
2023-03-11T06:55:25.816Z,95314.19
2023-03-11T07:05:28.067Z,95339.84
2023-03-11T07:15:30.252Z,95402.09
2023-03-11T07:25:32.412Z,95436.84
2023-03-11T07:35:35.894Z,95455.69
2023-03-11T07:45:38.220Z,95474.59
2023-03-11T07:55:40.451Z,95517.38
2023-03-11T08:05:42.688Z,95541.84
2023-03-11T08:15:44.940Z,95573.97
2023-03-11T08:25:47.270Z,95595.91
2023-03-11T08:35:49.462Z,95629.94
2023-03-11T08:45:52.455Z,95662.13
2023-03-11T08:55:54.824Z,95674.84
2023-03-11T09:05:58.784Z,95710.31
2023-03-11T09:16:01.055Z,95731.31
2023-03-11T09:26:04.060Z,95763.16
2023-03-11T09:36:07.308Z,95790.44
2023-03-11T09:46:30.595Z,95808.78
2023-03-11T09:56:35.831Z,95826.13
2023-03-11T10:06:39.870Z,95829.81
2023-03-11T10:16:55.894Z,95840.63
2023-03-11T10:27:02.908Z,95863.16
2023-03-11T10:37:13.886Z,95884.69
2023-03-11T10:47:23.177Z,95921.56
2023-03-11T10:57:27.068Z,95934.84
2023-03-11T11:07:33.532Z,95934.88
2023-03-11T11:17:35.766Z,95950.16
2023-03-11T11:27:37.973Z,95965.00
2023-03-11T11:37:43.724Z,95993.19
2023-03-11T11:47:52.520Z,96008.28
2023-03-11T11:57:54.817Z,96032.59
2023-03-11T12:08:16.819Z,96026.47
2023-03-11T12:18:43.022Z,96007.84
2023-03-11T12:28:58.848Z,96033.47
2023-03-11T12:39:05.804Z,96066.09
2023-03-11T12:49:08.041Z,96088.38
2023-03-11T12:59:29.126Z,96069.06
2023-03-11T13:09:31.850Z,96076.59
2023-03-11T13:19:36.573Z,96114.25
2023-03-11T13:30:00.678Z,96131.56
2023-03-11T13:40:33.579Z,96133.47
2023-03-11T13:50:39.615Z,96149.84
2023-03-11T14:00:49.592Z,96180.69
2023-03-11T14:11:00.001Z,96184.97
2023-03-11T14:21:03.896Z,96193.72
2023-03-11T14:31:06.485Z,96208.16
2023-03-11T14:41:14.129Z,96229.44
2023-03-11T14:51:29.377Z,96230.09
2023-03-11T15:01:36.697Z,96216.91
2023-03-11T15:11:58.255Z,96223.06
2023-03-11T15:22:24.100Z,96264.03
2023-03-11T15:32:32.072Z,96281.03
2023-03-11T15:42:34.312Z,96301.66
2023-03-11T15:52:36.671Z,96331.19
2023-03-11T16:02:38.829Z,96345.84
2023-03-11T16:12:42.742Z,96356.06
2023-03-11T16:22:45.756Z,96355.09
2023-03-11T16:32:48.121Z,96386.47
2023-03-11T16:42:50.341Z,96417.59
2023-03-11T16:52:53.504Z,96423.31
2023-03-11T17:02:55.818Z,96447.38
2023-03-11T17:12:58.035Z,96471.03
2023-03-11T17:23:00.957Z,96484.81
2023-03-11T17:33:03.371Z,96498.91
2023-03-11T17:43:05.767Z,96515.88
2023-03-11T17:53:08.670Z,96526.31
2023-03-11T18:03:11.143Z,96545.22
2023-03-11T18:24:10.067Z,96585.94
2023-03-11T18:34:14.347Z,96590.81
2023-03-11T18:44:16.801Z,96599.47
2023-03-11T18:54:19.150Z,96606.66
2023-03-11T19:04:21.697Z,96604.19
2023-03-11T19:14:24.343Z,96621.47
2023-03-11T19:24:26.720Z,96616.63
2023-03-11T19:34:29.181Z,96623.00
2023-03-11T19:44:31.544Z,96618.66
2023-03-11T19:54:33.930Z,96641.19
2023-03-11T20:04:36.319Z,96637.09
2023-03-11T20:14:38.779Z,96648.59
2023-03-11T20:24:41.279Z,96657.78
2023-03-11T20:34:43.892Z,96653.53
2023-03-11T20:44:46.354Z,96651.31
2023-03-11T20:54:48.732Z,96658.91
2023-03-11T21:04:51.176Z,96658.31
2023-03-11T21:14:53.607Z,96657.31
2023-03-11T21:24:56.358Z,96658.56
2023-03-11T21:40:11.880Z,96653.84
2023-03-11T21:50:14.327Z,96664.31
2023-03-11T22:00:17.020Z,96672.28
2023-03-11T22:10:19.930Z,96684.56
2023-03-11T22:20:22.695Z,96676.38
2023-03-11T22:30:25.287Z,96670.22
2023-03-11T22:40:27.791Z,96674.97
2023-03-11T22:50:30.227Z,96689.25
2023-03-11T23:00:32.660Z,96683.97
2023-03-11T23:10:35.043Z,96678.22
2023-03-11T23:20:39.046Z,96694.16
2023-03-11T23:30:41.550Z,96712.09
2023-03-11T23:40:43.941Z,96700.63
2023-03-11T23:50:50.585Z,96700.13
